RJSO(METAR)
08/13 14:00
METAR RJSO 130500Z 27012KT 230V310 9999 FEW030 BKN230 27/19 Q1007
RMK 1CU030 A2974=
戻る
トップページへ戻る
IMOC Co,.Ltd.